Time;durP1;ratioP1;P1;durP2;ratioP2;P2;SDS_P1;SDS_P2;PMS_P1;PMS_P2;Temp;Humidity;BMP_temperature;BMP_pressure;BME280_temperature;BME280_humidity;BME280_pressure;Samples;Min_cycle;Max_cycle;Signal;HPM_P1;HPM_P2
2023/10/02 00:01:52;;;;;;;0.52;0.40;;;;;;;-143.29;100.00;62188.47;5036788;28;20120;-89
2023/10/02 00:04:18;;;;;;;0.50;0.43;;;;;;;-143.29;100.00;62188.47;5054491;28;20032;-89
2023/10/02 00:06:48;;;;;;;0.70;0.70;;;;;;;-143.29;100.00;62188.47;5054546;28;20025;-90
2023/10/02 00:09:14;;;;;;;1.00;0.50;;;;;;;-143.29;100.00;62188.47;5054546;28;20025;-89
2023/10/02 00:11:40;;;;;;;0.40;0.40;;;;;;;-143.29;100.00;62188.47;5036354;28;20048;-89
2023/10/02 00:14:25;;;;;;;0.40;0.30;;;;;;;-143.29;100.00;62188.47;5054286;28;20029;-89
2023/10/02 00:16:59;;;;;;;0.47;0.32;;;;;;;-143.29;100.00;62188.47;5054195;28;20028;-89
2023/10/02 00:19:38;;;;;;;0.77;0.40;;;;;;;-143.29;100.00;62188.47;5053995;28;20108;-90
2023/10/02 00:22:09;;;;;;;1.20;0.40;;;;;;;-143.29;100.00;62188.47;5036398;28;20021;-89
2023/10/02 00:24:37;;;;;;;0.60;0.35;;;;;;;-143.29;100.00;62188.47;5054124;28;20028;-90
2023/10/02 00:27:04;;;;;;;0.70;0.60;;;;;;;-143.29;100.00;62188.47;5054142;28;20024;-88
2023/10/02 00:29:30;;;;;;;0.68;0.45;;;;;;;-143.29;100.00;62188.47;5054083;28;20036;-89
2023/10/02 00:31:56;;;;;;;0.50;0.50;;;;;;;-143.29;100.00;62188.47;5053671;28;20029;-89
2023/10/02 00:34:31;;;;;;;0.60;0.60;;;;;;;-143.29;100.00;62188.47;5054178;28;20025;-89
2023/10/02 00:37:05;;;;;;;1.63;0.82;;;;;;;-143.29;100.00;62188.47;5054005;28;20544;-89
2023/10/02 00:39:35;;;;;;;1.23;0.98;;;;;;;-143.29;100.00;62188.47;5053934;28;20162;-89
2023/10/02 00:42:16;;;;;;;1.25;1.00;;;;;;;-143.29;100.00;62188.47;5053866;28;20108;-89
2023/10/02 00:44:55;;;;;;;1.77;0.80;;;;;;;-143.29;100.00;62188.47;5053689;28;20025;-89
2023/10/02 00:47:42;;;;;;;1.33;0.80;;;;;;;-143.29;100.00;62188.47;5053777;28;20025;-89
2023/10/02 00:50:22;;;;;;;1.70;0.80;;;;;;;-143.29;100.00;62188.47;5053673;28;20074;-89
2023/10/02 00:52:54;;;;;;;0.90;0.75;;;;;;;-143.29;100.00;62188.47;5053502;28;20418;-89
2023/10/02 00:55:22;;;;;;;1.25;1.15;;;;;;;-143.29;100.00;62188.47;5053567;28;20467;-89
2023/10/02 00:57:51;;;;;;;1.30;1.00;;;;;;;-143.29;100.00;62188.47;5053625;28;20025;-89
2023/10/02 01:00:21;;;;;;;1.75;0.90;;;;;;;-143.29;100.00;62188.47;5053575;28;20474;-89
2023/10/02 01:02:57;;;;;;;2.10;1.00;;;;;;;-143.29;100.00;62188.47;5053028;28;20036;-90
2023/10/02 01:05:30;;;;;;;1.20;0.95;;;;;;;-143.29;100.00;62188.47;5053289;28;20060;-89
2023/10/02 01:07:57;;;;;;;1.77;1.10;;;;;;;-143.29;100.00;62188.47;5053321;28;20031;-89
2023/10/02 01:10:23;;;;;;;1.63;1.20;;;;;;;-143.29;100.00;62188.47;5053373;28;20043;-90
2023/10/02 01:12:53;;;;;;;2.50;1.55;;;;;;;-143.29;100.00;62188.47;5053117;28;20556;-90
2023/10/02 01:15:21;;;;;;;2.70;1.80;;;;;;;-143.29;100.00;62188.47;5053160;28;20040;-90
2023/10/02 01:17:50;;;;;;;2.50;1.85;;;;;;;-143.29;100.00;62188.47;5053388;28;20024;-89
2023/10/02 01:20:32;;;;;;;3.75;2.63;;;;;;;-143.29;100.00;62188.47;5053056;28;20035;-89
2023/10/02 01:23:12;;;;;;;3.58;2.15;;;;;;;-143.29;100.00;62188.47;5052987;28;20115;-88
2023/10/02 01:25:42;;;;;;;5.75;3.42;;;;;;;-143.29;100.00;62188.47;5052724;28;20025;-89
2023/10/02 01:28:10;;;;;;;3.47;2.22;;;;;;;-143.29;100.00;62188.47;5053047;28;20021;-89
2023/10/02 01:30:35;;;;;;;5.25;3.33;;;;;;;-143.29;100.00;62188.47;5053034;28;20025;-90
2023/10/02 01:35:48;;;;;;;6.93;4.38;;;;;;;-143.29;100.00;62188.47;5052780;28;20104;-90
2023/10/02 01:38:33;;;;;;;6.13;4.47;;;;;;;-143.29;100.00;62188.47;5052845;28;20028;-89
2023/10/02 01:41:08;;;;;;;6.00;3.72;;;;;;;-143.29;100.00;62188.47;5052780;28;20039;-89
2023/10/02 01:43:36;;;;;;;6.65;3.10;;;;;;;-143.29;100.00;62188.47;5052537;28;20025;-89
2023/10/02 01:46:03;;;;;;;5.70;3.85;;;;;;;-143.29;100.00;62188.47;5052413;28;20071;-89
2023/10/02 01:48:40;;;;;;;5.07;4.10;;;;;;;-143.29;100.00;62188.47;5052345;28;20120;-90
2023/10/02 01:51:20;;;;;;;6.97;3.78;;;;;;;-143.29;100.00;62188.47;5052436;28;20025;-89
2023/10/02 01:54:15;;;;;;;5.20;3.20;;;;;;;-143.29;100.00;62188.47;5052293;28;20390;-89
2023/10/02 01:56:45;;;;;;;5.68;3.28;;;;;;;-143.29;100.00;62188.47;5052803;28;20025;-89
2023/10/02 01:59:14;;;;;;;2.58;1.80;;;;;;;-143.29;100.00;62188.47;5052066;28;20021;-89
2023/10/02 02:01:51;;;;;;;3.15;1.80;;;;;;;-143.29;100.00;62188.47;5052288;28;20025;-88
2023/10/02 02:04:21;;;;;;;3.53;1.60;;;;;;;-143.29;100.00;62188.47;5052348;28;20386;-89
2023/10/02 02:06:54;;;;;;;2.80;1.92;;;;;;;-143.29;100.00;62188.47;5052357;28;20047;-90
2023/10/02 02:09:24;;;;;;;4.03;2.08;;;;;;;-143.29;100.00;62188.47;5052713;28;20060;-89
2023/10/02 02:12:13;;;;;;;2.38;1.73;;;;;;;-143.29;100.00;62188.47;5052080;28;20028;-89
2023/10/02 02:14:51;;;;;;;3.95;1.88;;;;;;;-143.29;100.00;62188.47;5051402;28;20021;-89
2023/10/02 02:17:23;;;;;;;2.25;1.42;;;;;;;-143.29;100.00;62188.47;5052145;28;20020;-89
2023/10/02 02:19:48;;;;;;;3.85;1.30;;;;;;;-143.29;100.00;62188.47;5051924;28;20031;-89
2023/10/02 02:22:14;;;;;;;2.35;1.20;;;;;;;-143.29;100.00;62188.47;5051951;28;20021;-89
2023/10/02 02:24:40;;;;;;;3.15;1.42;;;;;;;-143.29;100.00;62188.47;5051959;28;20029;-89
2023/10/02 02:27:06;;;;;;;1.10;0.80;;;;;;;-143.29;100.00;62188.47;5051896;28;20490;-89
2023/10/02 02:29:33;;;;;;;3.05;1.05;;;;;;;-143.29;100.00;62188.47;5051963;28;20104;-89
2023/10/02 02:31:58;;;;;;;2.33;1.05;;;;;;;-143.29;100.00;62188.47;5051796;28;20032;-89
2023/10/02 02:34:25;;;;;;;3.40;1.38;;;;;;;-143.29;100.00;62188.47;5034107;28;20438;-89
2023/10/02 02:36:51;;;;;;;3.20;1.20;;;;;;;-143.29;100.00;62188.47;5051824;28;20463;-90
2023/10/02 02:39:22;;;;;;;2.28;1.13;;;;;;;-143.29;100.00;62188.47;5051599;28;20063;-90
2023/10/02 02:44:43;;;;;;;2.42;0.70;;;;;;;-143.29;100.00;62188.47;5051381;28;20498;-89
2023/10/02 02:47:09;;;;;;;2.55;1.05;;;;;;;-143.29;100.00;62188.47;5051599;28;20456;-89
2023/10/02 02:49:50;;;;;;;1.52;1.00;;;;;;;-143.29;100.00;62188.47;5051811;28;20025;-89
2023/10/02 02:52:24;;;;;;;3.33;1.50;;;;;;;-143.29;100.00;62188.47;5051292;28;20036;-89
2023/10/02 02:54:58;;;;;;;2.78;1.30;;;;;;;-143.29;100.00;62188.47;5051650;28;20104;-89
2023/10/02 02:57:27;;;;;;;2.50;1.38;;;;;;;-143.29;100.00;62188.47;5051713;28;20467;-89
2023/10/02 03:02:40;;;;;;;5.07;1.77;;;;;;;-143.29;100.00;62188.47;5051549;28;20032;-89
2023/10/02 03:05:11;;;;;;;6.07;1.90;;;;;;;-143.29;100.00;62188.47;5051488;28;20485;-89
2023/10/02 03:07:39;;;;;;;3.75;1.80;;;;;;;-143.29;100.00;62188.47;5052014;28;20022;-89
2023/10/02 03:10:10;;;;;;;3.10;1.50;;;;;;;-143.29;100.00;62188.47;5051430;28;20594;-89
2023/10/02 03:12:41;;;;;;;3.83;1.60;;;;;;;-143.29;100.00;62188.47;5051390;28;20133;-89
2023/10/02 03:15:12;;;;;;;4.97;2.40;;;;;;;-143.29;100.00;62188.47;5051311;28;20036;-89
2023/10/02 03:17:41;;;;;;;5.72;2.33;;;;;;;-143.29;100.00;62188.47;5051490;28;20057;-89
2023/10/02 03:20:22;;;;;;;5.35;2.13;;;;;;;-143.29;100.00;62188.47;5051047;28;20033;-89
2023/10/02 03:22:53;;;;;;;3.22;1.70;;;;;;;-143.29;100.00;62188.47;5051244;28;20170;-89
2023/10/02 03:25:28;;;;;;;4.55;2.20;;;;;;;-143.29;100.00;62188.47;5051232;28;20028;-89
2023/10/02 03:27:57;;;;;;;4.53;1.88;;;;;;;-143.29;100.00;62188.47;5055297;28;20043;-89
2023/10/02 03:30:38;;;;;;;3.53;1.98;;;;;;;-143.29;100.00;62188.47;5055013;28;20028;-89
2023/10/02 03:33:20;;;;;;;6.07;2.35;;;;;;;-143.29;100.00;62188.47;5054972;28;20032;-89
2023/10/02 03:36:08;;;;;;;6.00;3.03;;;;;;;-143.29;100.00;62188.47;5055249;28;20036;-89
2023/10/02 03:38:41;;;;;;;5.50;2.58;;;;;;;-143.29;100.00;62188.47;5037134;28;20047;-89
2023/10/02 03:41:06;;;;;;;6.03;3.10;;;;;;;-143.29;100.00;62188.47;5055026;28;20102;-89
2023/10/02 03:43:35;;;;;;;5.45;2.92;;;;;;;-143.29;100.00;62188.47;5054651;28;20531;-89
2023/10/02 03:46:04;;;;;;;6.28;4.07;;;;;;;-143.29;100.00;62188.47;5054896;28;20057;-89
2023/10/02 03:48:32;;;;;;;10.20;5.80;;;;;;;-143.29;100.00;62188.47;5054792;28;20455;-89
2023/10/02 03:50:58;;;;;;;9.70;5.32;;;;;;;-143.29;100.00;62188.47;5036820;28;20487;-89
2023/10/02 03:53:28;;;;;;;11.65;5.40;;;;;;;-143.29;100.00;62188.47;5054598;28;20032;-89
2023/10/02 03:58:47;;;;;;;10.68;5.25;;;;;;;-143.29;100.00;62188.47;5054673;28;20044;-89
2023/10/02 04:01:17;;;;;;;10.38;4.75;;;;;;;-143.29;100.00;62188.47;5054680;28;20029;-89
2023/10/02 04:06:33;;;;;;;9.27;4.97;;;;;;;-143.29;100.00;62188.47;5054549;28;20497;-89
2023/10/02 04:09:06;;;;;;;9.10;5.63;;;;;;;-143.29;100.00;62188.47;5054679;28;20063;-89
2023/10/02 04:11:31;;;;;;;9.27;5.00;;;;;;;-143.29;100.00;62188.47;5054483;28;20119;-89
2023/10/02 04:13:56;;;;;;;11.93;6.25;;;;;;;-143.29;100.00;62188.47;5054386;28;20033;-89
2023/10/02 04:16:28;;;;;;;13.25;7.13;;;;;;;-143.29;100.00;62188.47;5054327;28;20025;-89
2023/10/02 04:19:01;;;;;;;15.13;8.52;;;;;;;-143.29;100.00;62188.47;5054058;28;20040;-89
2023/10/02 04:21:27;;;;;;;12.88;6.68;;;;;;;-143.29;100.00;62188.47;5054321;28;20536;-89
2023/10/02 04:23:54;;;;;;;14.75;7.30;;;;;;;-143.29;100.00;62188.47;5036119;28;20033;-89
2023/10/02 04:26:23;;;;;;;14.68;7.50;;;;;;;-143.29;100.00;62188.47;5053923;28;20029;-89
2023/10/02 04:29:28;;;;;;;14.02;6.57;;;;;;;-143.29;100.00;62188.47;5053973;28;20025;-89
2023/10/02 04:32:04;;;;;;;13.60;7.07;;;;;;;-143.29;100.00;62188.47;5051698;28;20179;-89
2023/10/02 04:34:31;;;;;;;14.70;6.13;;;;;;;-143.29;100.00;62188.47;5054081;28;20104;-89
2023/10/02 04:36:57;;;;;;;12.95;5.80;;;;;;;-143.29;100.00;62188.47;5053765;28;20021;-89
2023/10/02 04:42:19;;;;;;;10.43;5.63;;;;;;;-143.29;100.00;62188.47;5053710;28;20021;-89
2023/10/02 04:44:46;;;;;;;12.13;5.25;;;;;;;-143.29;100.00;62188.47;5053862;28;20106;-89
2023/10/02 04:47:17;;;;;;;8.57;4.78;;;;;;;-143.29;100.00;62188.47;5053753;28;20047;-89
2023/10/02 04:52:55;;;;;;;9.82;5.10;;;;;;;-143.29;100.00;62188.47;5053820;28;20053;-89
2023/10/02 04:55:42;;;;;;;7.72;4.20;;;;;;;-143.29;100.00;62188.47;5053586;28;20021;-89
2023/10/02 04:58:09;;;;;;;9.35;3.80;;;;;;;-143.29;100.00;62188.47;5053616;28;20033;-89
2023/10/02 05:00:38;;;;;;;6.43;3.60;;;;;;;-143.29;100.00;62188.47;5035685;28;20056;-89
2023/10/02 05:03:38;;;;;;;7.50;3.72;;;;;;;-143.29;100.00;62188.47;5053582;28;20115;-89
2023/10/02 05:06:00;;;;;;;5.30;3.38;;;;;;;-143.29;100.00;62188.47;5050287;28;20025;-90
2023/10/02 05:08:34;;;;;;;3.58;2.60;;;;;;;-143.29;100.00;62188.47;5053372;28;20047;-89
2023/10/02 05:11:07;;;;;;;5.95;3.08;;;;;;;-143.29;100.00;62188.47;5053293;28;20113;-90
2023/10/02 05:13:59;;;;;;;6.60;3.75;;;;;;;-143.29;100.00;62188.47;5035429;28;20471;-89
2023/10/02 05:16:38;;;;;;;4.47;2.63;;;;;;;-143.29;100.00;62188.47;5053188;28;20021;-89
2023/10/02 05:19:05;;;;;;;5.70;3.20;;;;;;;-143.29;100.00;62188.47;5035382;28;20029;-89
2023/10/02 05:21:50;;;;;;;6.93;3.53;;;;;;;-143.29;100.00;62188.47;5053215;28;20055;-90
2023/10/02 05:24:17;;;;;;;10.95;4.97;;;;;;;-143.29;100.00;62188.47;5053347;28;20429;-89
2023/10/02 05:26:44;;;;;;;7.80;4.72;;;;;;;-143.29;100.00;62188.47;5053066;28;20471;-89
2023/10/02 05:29:12;;;;;;;11.73;6.13;;;;;;;-143.29;100.00;62188.47;5052740;28;20024;-89
2023/10/02 05:31:40;;;;;;;9.88;4.68;;;;;;;-143.29;100.00;62188.47;5052668;28;20493;-89
2023/10/02 05:34:21;;;;;;;11.00;5.63;;;;;;;-143.29;100.00;62188.47;5052894;28;20029;-90
2023/10/02 05:39:39;;;;;;;10.87;5.17;;;;;;;-143.29;100.00;62188.47;5052747;28;20731;-90
2023/10/02 05:42:05;;;;;;;11.80;5.80;;;;;;;-143.29;100.00;62188.47;5052678;28;20270;-89
2023/10/02 05:44:35;;;;;;;8.73;5.18;;;;;;;-143.29;100.00;62188.47;5035056;28;20053;-92
2023/10/02 05:47:07;;;;;;;12.80;6.85;;;;;;;-143.29;100.00;62188.47;5052696;28;20029;-91
2023/10/02 05:49:37;;;;;;;15.68;6.97;;;;;;;-143.29;100.00;62188.47;5034605;28;20127;-91
2023/10/02 05:52:07;;;;;;;11.02;6.20;;;;;;;-143.29;100.00;62188.47;5052207;28;20024;-91
2023/10/02 05:54:36;;;;;;;14.85;8.30;;;;;;;-143.29;100.00;62188.47;5052562;28;20036;-91
2023/10/02 05:57:09;;;;;;;13.55;7.13;;;;;;;-143.29;100.00;62188.47;5052778;28;20078;-93
2023/10/02 05:59:46;;;;;;;12.43;7.07;;;;;;;-143.29;100.00;62188.47;5032686;28;20020;-92
2023/10/02 06:02:17;;;;;;;14.57;7.40;;;;;;;-143.29;100.00;62188.47;5052343;28;20458;-91
2023/10/02 06:04:47;;;;;;;14.27;6.68;;;;;;;-143.29;100.00;62188.47;5033748;28;20029;-91
2023/10/02 06:07:40;;;;;;;14.18;6.43;;;;;;;-143.29;100.00;62188.47;5033793;28;20028;-92
2023/10/02 06:10:08;;;;;;;14.73;6.75;;;;;;;-143.29;100.00;62188.47;5052357;28;20098;-92
2023/10/02 06:12:34;;;;;;;14.30;7.18;;;;;;;-143.29;100.00;62188.47;5052001;28;20451;-91
2023/10/02 06:15:09;;;;;;;17.35;8.13;;;;;;;-143.29;100.00;62188.47;5051097;28;20021;-91
2023/10/02 06:17:35;;;;;;;13.65;7.28;;;;;;;-143.29;100.00;62188.47;5051642;28;20048;-91
2023/10/02 06:20:00;;;;;;;13.85;6.72;;;;;;;-143.29;100.00;62188.47;5051620;28;20483;-92
2023/10/02 06:22:26;;;;;;;18.10;7.30;;;;;;;-143.29;100.00;62188.47;5052096;28;20037;-91
2023/10/02 06:24:51;;;;;;;14.25;7.22;;;;;;;-143.29;100.00;62188.47;5034022;28;20474;-92
2023/10/02 06:27:21;;;;;;;15.93;7.32;;;;;;;-143.29;100.00;62188.47;5051891;28;20433;-91
2023/10/02 06:29:49;;;;;;;14.88;7.60;;;;;;;-143.29;100.00;62188.47;5051954;28;20028;-92
2023/10/02 06:32:19;;;;;;;19.17;8.50;;;;;;;-143.29;100.00;62188.47;5051712;28;20029;-91
2023/10/02 06:34:45;;;;;;;17.52;8.55;;;;;;;-143.29;100.00;62188.47;5051903;28;20098;-91
2023/10/02 06:37:16;;;;;;;14.60;7.40;;;;;;;-143.29;100.00;62188.47;5051814;28;20056;-92
2023/10/02 06:39:52;;;;;;;21.23;7.75;;;;;;;-143.29;100.00;62188.47;5051668;28;20025;-92
2023/10/02 06:42:25;;;;;;;14.77;7.03;;;;;;;-143.29;100.00;62188.47;5051621;28;20021;-92
2023/10/02 06:44:53;;;;;;;14.40;7.25;;;;;;;-143.29;100.00;62188.47;5051840;28;20422;-91
2023/10/02 06:47:23;;;;;;;9.43;5.82;;;;;;;-143.29;100.00;62188.47;5051583;28;20051;-93
2023/10/02 06:49:53;;;;;;;17.20;7.38;;;;;;;-143.29;100.00;62188.47;5051670;28;20025;-92
2023/10/02 06:52:20;;;;;;;16.65;7.32;;;;;;;-143.29;100.00;62188.47;5051364;28;20029;-91
2023/10/02 06:54:48;;;;;;;18.40;6.95;;;;;;;-143.29;100.00;62188.47;5033721;28;20068;-91
2023/10/02 06:57:16;;;;;;;12.63;6.10;;;;;;;-143.29;100.00;62188.47;5033716;28;20017;-91
2023/10/02 06:59:51;;;;;;;14.88;6.53;;;;;;;-143.29;100.00;62188.47;5033756;28;20059;-90
2023/10/02 07:02:21;;;;;;;14.07;6.55;;;;;;;-143.29;100.00;62188.47;5054529;28;20049;-91
2023/10/02 07:04:48;;;;;;;13.10;6.00;;;;;;;-143.29;100.00;62188.47;5055482;28;20024;-91
2023/10/02 07:07:29;;;;;;;17.00;6.57;;;;;;;-143.29;100.00;62188.47;5035799;28;20017;-90
2023/10/02 07:10:07;;;;;;;13.07;6.20;;;;;;;-143.29;100.00;62188.47;5055023;28;20491;-92
2023/10/02 07:12:40;;;;;;;11.63;5.38;;;;;;;-143.29;100.00;62188.47;5055143;28;20483;-91
2023/10/02 07:15:13;;;;;;;10.82;5.10;;;;;;;-143.29;100.00;62188.47;5037301;28;20066;-90
2023/10/02 07:17:48;;;;;;;12.32;6.28;;;;;;;-143.29;100.00;62188.47;5037304;28;20032;-91
2023/10/02 07:20:20;;;;;;;11.43;6.15;;;;;;;-143.29;100.00;62188.47;5055668;28;20109;-92
2023/10/02 07:22:51;;;;;;;10.43;5.85;;;;;;;-143.29;100.00;62188.47;5054465;28;20429;-90
2023/10/02 07:25:24;;;;;;;10.50;5.70;;;;;;;-143.29;100.00;62188.47;5037273;28;20082;-91
2023/10/02 07:27:50;;;;;;;11.32;5.90;;;;;;;-143.29;100.00;62188.47;5054978;28;20021;-90
2023/10/02 07:30:26;;;;;;;9.93;5.70;;;;;;;-143.29;100.00;62188.47;5055049;28;20069;-91
2023/10/02 07:32:54;;;;;;;11.95;6.03;;;;;;;-143.29;100.00;62188.47;5055214;28;20107;-91
2023/10/02 07:35:23;;;;;;;8.52;4.75;;;;;;;-143.29;100.00;62188.47;5054185;28;20048;-92
2023/10/02 07:37:58;;;;;;;10.82;5.40;;;;;;;-143.29;100.00;62188.47;5054241;28;20498;-91
2023/10/02 07:40:48;;;;;;;10.13;5.32;;;;;;;-143.29;100.00;62188.47;5053630;28;20024;-93
2023/10/02 07:43:20;;;;;;;10.18;5.65;;;;;;;-143.29;100.00;62188.47;5052865;28;20029;-92
2023/10/02 07:46:01;;;;;;;12.05;5.68;;;;;;;-143.29;100.00;62188.47;5035476;28;20025;-93
2023/10/02 07:48:30;;;;;;;10.80;5.20;;;;;;;-143.29;100.00;62188.47;5050989;28;20021;-90
2023/10/02 07:50:58;;;;;;;9.00;5.50;;;;;;;-143.29;100.00;62188.47;5052439;28;20112;-91
2023/10/02 07:53:38;;;;;;;10.88;5.82;;;;;;;-143.29;100.00;62188.47;5053109;28;20020;-90
2023/10/02 07:56:05;;;;;;;9.65;5.90;;;;;;;-143.29;100.00;62188.47;5052876;28;20450;-90
2023/10/02 07:58:31;;;;;;;8.77;5.65;;;;;;;-143.29;100.00;62188.47;5053320;28;20479;-91
2023/10/02 08:01:06;;;;;;;7.20;4.80;;;;;;;-143.29;100.00;62188.47;5050148;28;20041;-91
2023/10/02 08:03:34;;;;;;;10.30;5.28;;;;;;;-143.29;100.00;62188.47;5035688;28;20075;-92
2023/10/02 08:06:20;;;;;;;10.82;5.60;;;;;;;-143.29;100.00;62188.47;5036078;28;20029;-92
2023/10/02 08:08:46;;;;;;;8.75;5.10;;;;;;;-143.29;100.00;62188.47;5054078;28;20418;-90
2023/10/02 08:11:12;;;;;;;9.38;5.40;;;;;;;-143.29;100.00;62188.47;5054205;28;20021;-91
2023/10/02 08:13:39;;;;;;;9.48;5.45;;;;;;;-143.29;100.00;62188.47;5055020;28;20031;-90
2023/10/02 08:16:12;;;;;;;9.50;5.45;;;;;;;-143.29;100.00;62188.47;5069356;28;20051;-90
2023/10/02 08:18:57;;;;;;;7.47;4.95;;;;;;;-143.29;100.00;62188.47;5054039;28;20032;-90
2023/10/02 08:21:46;;;;;;;7.75;4.82;;;;;;;-143.29;100.00;62188.47;5053566;28;20418;-91
2023/10/02 08:24:13;;;;;;;8.30;5.18;;;;;;;-143.29;100.00;62188.47;5036682;28;20025;-91
2023/10/02 08:26:40;;;;;;;8.45;4.72;;;;;;;-143.29;100.00;62188.47;5054092;28;20359;-93
2023/10/02 08:29:18;;;;;;;8.45;4.78;;;;;;;-143.29;100.00;62188.47;5036182;28;20162;-91
2023/10/02 08:31:48;;;;;;;8.27;4.43;;;;;;;-143.29;100.00;62188.47;5053979;28;20525;-91
2023/10/02 08:34:26;;;;;;;7.15;4.28;;;;;;;-143.29;100.00;62188.47;5053953;28;20025;-91
2023/10/02 08:37:07;;;;;;;5.05;3.40;;;;;;;-143.29;100.00;62188.47;5052872;28;20060;-90
2023/10/02 08:39:38;;;;;;;5.85;3.53;;;;;;;-143.29;100.00;62188.47;5036151;28;20391;-90
2023/10/02 08:42:09;;;;;;;5.40;3.38;;;;;;;-143.29;100.00;62188.47;5052822;28;20033;-92
2023/10/02 08:44:41;;;;;;;7.43;4.70;;;;;;;-143.29;100.00;62188.47;5053505;28;20025;-90
2023/10/02 08:47:11;;;;;;;5.53;3.75;;;;;;;-143.29;100.00;62188.47;5042063;28;20360;-90
2023/10/02 08:49:38;;;;;;;7.93;3.80;;;;;;;-143.29;100.00;62188.47;5069692;28;20081;-91
2023/10/02 08:52:13;;;;;;;7.20;4.00;;;;;;;-143.29;100.00;62188.47;5055785;28;20108;-92
2023/10/02 08:54:41;;;;;;;6.72;3.72;;;;;;;-143.29;100.00;62188.47;5053492;28;20364;-91
2023/10/02 08:57:08;;;;;;;6.68;3.97;;;;;;;-143.29;100.00;62188.47;5053543;28;20021;-91
2023/10/02 08:59:38;;;;;;;11.65;7.03;;;;;;;-143.29;100.00;62188.47;5053324;28;20112;-90
2023/10/02 09:02:14;;;;;;;8.60;4.45;;;;;;;-143.29;100.00;62188.47;5053563;28;20471;-90
2023/10/02 09:04:41;;;;;;;6.40;4.30;;;;;;;-143.29;100.00;62188.47;5072985;28;20082;-90
2023/10/02 09:07:22;;;;;;;9.10;4.80;;;;;;;-143.29;100.00;62188.47;5054588;28;20024;-91
2023/10/02 09:09:54;;;;;;;6.70;3.90;;;;;;;-143.29;100.00;62188.47;5073259;28;20489;-91
2023/10/02 09:12:20;;;;;;;6.72;4.07;;;;;;;-143.29;100.00;62188.47;5072720;28;20032;-91
2023/10/02 09:14:46;;;;;;;8.02;4.18;;;;;;;-143.29;100.00;62188.47;5072987;28;20159;-92
2023/10/02 09:17:16;;;;;;;8.90;4.60;;;;;;;-143.29;100.00;62188.47;5072858;28;20071;-90
2023/10/02 09:19:53;;;;;;;5.00;3.00;;;;;;;-143.29;100.00;62188.47;5072954;28;20029;-91
2023/10/02 09:22:20;;;;;;;5.80;3.65;;;;;;;-143.29;100.00;62188.47;5054738;28;20035;-90
2023/10/02 09:24:58;;;;;;;6.80;3.97;;;;;;;-143.29;100.00;62188.47;5072381;28;20387;-91
2023/10/02 09:27:38;;;;;;;5.65;3.80;;;;;;;-143.29;100.00;62188.47;5054666;28;20027;-90
2023/10/02 09:30:35;;;;;;;4.50;2.80;;;;;;;-143.29;100.00;62188.47;5072170;28;20024;-90
2023/10/02 09:33:07;;;;;;;6.47;3.65;;;;;;;-143.29;100.00;62188.47;5072217;28;20027;-91
2023/10/02 09:35:40;;;;;;;6.43;3.85;;;;;;;-143.29;100.00;62188.47;5071835;28;20017;-91
2023/10/02 09:38:06;;;;;;;5.22;3.33;;;;;;;-143.29;100.00;62188.47;5072874;28;20032;-93
2023/10/02 09:40:54;;;;;;;4.75;2.78;;;;;;;-143.29;100.00;62188.47;5039827;28;20475;-91
2023/10/02 09:43:36;;;;;;;4.97;3.05;;;;;;;-143.29;100.00;62188.47;5051135;28;20044;-91
2023/10/02 09:46:06;;;;;;;4.97;2.55;;;;;;;-143.29;100.00;62188.47;5052268;28;20021;-91
2023/10/02 09:48:46;;;;;;;4.45;2.97;;;;;;;-143.29;100.00;62188.47;5034279;28;20025;-92
2023/10/02 09:51:30;;;;;;;4.50;2.50;;;;;;;-143.29;100.00;62188.47;5033733;28;20504;-91
2023/10/02 09:54:08;;;;;;;4.72;2.55;;;;;;;-143.29;100.00;62188.47;5052360;28;20037;-91
2023/10/02 09:57:04;;;;;;;2.70;1.65;;;;;;;-143.29;100.00;62188.47;5051557;28;20033;-90
2023/10/02 09:59:37;;;;;;;6.10;1.90;;;;;;;-143.29;100.00;62188.47;5051642;28;20029;-91
2023/10/02 10:02:15;;;;;;;1.83;1.05;;;;;;;-143.29;100.00;62188.47;5051895;28;20078;-91
2023/10/02 10:05:00;;;;;;;3.15;0.70;;;;;;;-143.29;100.00;62188.47;5051520;28;20070;-92
2023/10/02 10:07:52;;;;;;;2.30;1.83;;;;;;;-143.29;100.00;62188.47;5051929;28;20032;-92
2023/10/02 10:10:45;;;;;;;2.67;1.13;;;;;;;-143.29;100.00;62188.47;5026171;28;20116;-92
2023/10/02 10:13:26;;;;;;;1.90;1.10;;;;;;;-143.29;100.00;62188.47;5031979;28;20033;-91
2023/10/02 10:16:19;;;;;;;0.90;0.45;;;;;;;-143.29;100.00;62188.47;5031922;28;20022;-92
2023/10/02 10:19:26;;;;;;;2.60;0.93;;;;;;;-143.29;100.00;62188.47;5051181;28;20020;-90
2023/10/02 10:21:56;;;;;;;3.00;1.10;;;;;;;-143.29;100.00;62188.47;5047456;28;20069;-90
2023/10/02 10:24:57;;;;;;;1.00;0.70;;;;;;;-143.29;100.00;62188.47;5050586;28;20025;-91
2023/10/02 10:27:38;;;;;;;2.38;1.10;;;;;;;-143.29;100.00;62188.47;5049665;28;20061;-90
2023/10/02 10:30:19;;;;;;;2.25;0.80;;;;;;;-143.29;100.00;62188.47;5050877;28;20036;-90
2023/10/02 10:32:44;;;;;;;2.10;1.08;;;;;;;-143.29;100.00;62188.47;5051277;28;20033;-90
2023/10/02 10:35:29;;;;;;;1.45;0.60;;;;;;;-143.29;100.00;62188.47;5050488;28;20031;-90
2023/10/02 10:37:56;;;;;;;2.15;0.60;;;;;;;-143.29;100.00;62188.47;5031619;28;20040;-90
2023/10/02 10:40:50;;;;;;;1.02;0.70;;;;;;;-143.29;100.00;62188.47;5013667;28;20109;-90
2023/10/02 10:43:16;;;;;;;1.83;0.85;;;;;;;-143.29;100.00;62188.47;5031392;28;20036;-90
2023/10/02 10:45:44;;;;;;;2.17;0.70;;;;;;;-143.29;100.00;62188.47;5031574;28;20048;-90
2023/10/02 10:48:23;;;;;;;1.48;1.00;;;;;;;-143.29;100.00;62188.47;5037976;28;20511;-90
2023/10/02 10:51:20;;;;;;;3.83;1.13;;;;;;;-143.29;100.00;62188.47;5050758;28;20110;-91
2023/10/02 10:53:51;;;;;;;1.90;0.70;;;;;;;-143.29;100.00;62188.47;5051875;28;20104;-90
2023/10/02 10:56:19;;;;;;;2.70;0.77;;;;;;;-143.29;100.00;62188.47;5051689;28;20375;-89
2023/10/02 10:58:52;;;;;;;3.47;1.00;;;;;;;-143.29;100.00;62188.47;5033295;28;20036;-90
2023/10/02 11:01:21;;;;;;;2.83;0.90;;;;;;;-143.29;100.00;62188.47;5033433;28;20033;-89
2023/10/02 11:03:56;;;;;;;1.75;0.60;;;;;;;-143.29;100.00;62188.47;5051295;28;20057;-90
2023/10/02 11:06:22;;;;;;;1.02;0.57;;;;;;;-143.29;100.00;62188.47;5050782;28;20036;-89
2023/10/02 11:09:12;;;;;;;1.52;0.60;;;;;;;-143.29;100.00;62188.47;5051185;28;20021;-90
2023/10/02 11:11:49;;;;;;;1.38;0.70;;;;;;;-143.29;100.00;62188.47;5031006;28;20079;-91
2023/10/02 11:14:44;;;;;;;0.75;0.40;;;;;;;-143.29;100.00;62188.47;5031390;28;20028;-91
2023/10/02 11:17:11;;;;;;;0.95;0.60;;;;;;;-143.29;100.00;62188.47;5029794;28;20120;-91
2023/10/02 11:19:45;;;;;;;2.13;0.88;;;;;;;-143.29;100.00;62188.47;5030524;28;20038;-91
2023/10/02 11:24:45;;;;;;;2.30;1.33;;;;;;;-143.29;100.00;62188.47;5037493;28;20017;-91
2023/10/02 11:27:14;;;;;;;2.38;1.00;;;;;;;-143.29;100.00;62188.47;5051182;28;20032;-91
2023/10/02 11:29:41;;;;;;;3.10;1.30;;;;;;;-143.29;100.00;62188.47;5033113;28;20024;-90
2023/10/02 11:32:19;;;;;;;2.60;1.83;;;;;;;-143.29;100.00;62188.47;5032475;28;20047;-91
2023/10/02 11:35:02;;;;;;;3.60;1.67;;;;;;;-143.29;100.00;62188.47;5048984;28;20163;-89
2023/10/02 11:37:28;;;;;;;1.63;1.10;;;;;;;-143.29;100.00;62188.47;5051962;28;20097;-91
2023/10/02 11:39:55;;;;;;;2.00;1.17;;;;;;;-143.29;100.00;62188.47;5032822;28;20083;-91
2023/10/02 11:42:22;;;;;;;2.45;0.63;;;;;;;-143.29;100.00;62188.47;5032755;28;20140;-92
2023/10/02 11:44:47;;;;;;;1.92;1.10;;;;;;;-143.29;100.00;62188.47;5050960;28;20033;-91
2023/10/02 11:47:13;;;;;;;3.90;1.00;;;;;;;-143.29;100.00;62188.47;5033594;28;20029;-92
2023/10/02 11:49:40;;;;;;;1.23;0.75;;;;;;;-143.29;100.00;62188.47;5052013;28;20033;-93
2023/10/02 11:52:05;;;;;;;1.27;0.85;;;;;;;-143.29;100.00;62188.47;5036046;28;20033;-91
2023/10/02 11:54:39;;;;;;;4.50;1.20;;;;;;;-143.29;100.00;62188.47;5054699;28;20460;-91
2023/10/02 11:57:14;;;;;;;3.65;1.10;;;;;;;-143.29;100.00;62188.47;5054120;28;20032;-91
2023/10/02 11:59:42;;;;;;;1.40;0.82;;;;;;;-143.29;100.00;62188.47;5036025;28;20021;-91